Time;durP1;ratioP1;P1;durP2;ratioP2;P2;SDS_P1;SDS_P2;PMS_P1;PMS_P2;Temp;Humidity;BMP_temperature;BMP_pressure;BME280_temperature;BME280_humidity;BME280_pressure;Samples;Min_cycle;Max_cycle;Signal;HPM_P1;HPM_P2
2022/11/07 00:02:10;;;;;;;24.33;15.13;;;10.20;99.90;;;;;;6186450;23;20153;-79
2022/11/07 00:04:36;;;;;;;25.17;14.25;;;10.30;99.90;;;;;;6159875;23;20099;-80
2022/11/07 00:07:02;;;;;;;26.88;16.10;;;10.20;99.90;;;;;;6159641;23;20041;-80
2022/11/07 00:09:28;;;;;;;18.88;12.32;;;10.30;99.90;;;;;;6159652;23;20359;-80
2022/11/07 00:11:54;;;;;;;25.05;15.88;;;10.30;99.90;;;;;;6159801;23;20497;-79
2022/11/07 00:14:20;;;;;;;23.58;12.43;;;10.30;99.90;;;;;;6186272;23;20017;-80
2022/11/07 00:16:47;;;;;;;20.65;12.68;;;10.40;99.90;;;;;;6159687;23;20021;-80
2022/11/07 00:19:16;;;;;;;21.00;12.55;;;10.30;99.90;;;;;;6159748;23;20112;-79
2022/11/07 00:21:43;;;;;;;22.15;11.73;;;10.30;99.90;;;;;;6159645;23;20048;-80
2022/11/07 00:24:09;;;;;;;17.70;10.63;;;10.30;99.90;;;;;;6159644;23;20013;-80
2022/11/07 00:26:35;;;;;;;21.25;10.80;;;10.30;99.90;;;;;;6186291;23;20076;-79
2022/11/07 00:29:02;;;;;;;21.42;11.20;;;10.30;99.90;;;;;;6159618;23;20019;-79
2022/11/07 00:31:27;;;;;;;15.60;10.20;;;10.30;99.90;;;;;;6186365;23;20021;-80
2022/11/07 00:33:53;;;;;;;22.05;9.25;;;10.30;99.90;;;;;;6186276;23;20013;-80
2022/11/07 00:36:28;;;;;;;24.20;9.90;;;10.30;99.90;;;;;;6185954;23;20033;-81
2022/11/07 00:38:54;;;;;;;24.42;10.70;;;10.30;99.90;;;;;;6161385;23;20028;-80
2022/11/07 00:41:21;;;;;;;22.35;11.15;;;10.30;99.90;;;;;;6161620;23;20349;-79
2022/11/07 00:43:46;;;;;;;18.00;9.88;;;10.30;99.90;;;;;;6161399;23;20096;-79
2022/11/07 00:46:14;;;;;;;23.88;12.02;;;10.30;99.90;;;;;;6161643;23;20053;-80
2022/11/07 00:48:40;;;;;;;21.02;11.13;;;10.40;99.90;;;;;;6161533;23;20017;-80
2022/11/07 00:51:11;;;;;;;19.45;11.20;;;10.40;99.90;;;;;;6188205;23;20052;-79
2022/11/07 00:53:37;;;;;;;19.02;10.60;;;10.40;99.90;;;;;;6188312;23;20028;-79
2022/11/07 00:56:05;;;;;;;17.48;9.48;;;10.40;99.90;;;;;;6161371;23;20017;-80
2022/11/07 00:58:31;;;;;;;19.85;10.13;;;10.40;99.90;;;;;;6161517;23;20049;-81
2022/11/07 01:00:57;;;;;;;17.20;9.50;;;10.40;99.90;;;;;;6188168;23;20067;-80
2022/11/07 01:06:07;;;;;;;17.20;9.82;;;10.40;99.90;;;;;;6187918;23;20035;-79
2022/11/07 01:08:33;;;;;;;15.68;10.57;;;10.40;99.90;;;;;;6188098;23;20088;-79
2022/11/07 01:11:05;;;;;;;17.15;9.13;;;10.40;99.90;;;;;;6161284;23;20086;-79
2022/11/07 01:13:31;;;;;;;16.27;8.93;;;10.40;99.90;;;;;;6187632;23;20410;-79
2022/11/07 01:15:57;;;;;;;18.20;10.30;;;10.50;99.90;;;;;;6187932;23;20021;-79
2022/11/07 01:18:22;;;;;;;20.63;11.45;;;10.50;99.90;;;;;;6187979;23;20020;-81
2022/11/07 01:20:48;;;;;;;18.92;10.88;;;10.60;99.90;;;;;;6187897;23;20084;-81
2022/11/07 01:23:15;;;;;;;20.83;10.57;;;10.50;99.90;;;;;;6161211;23;20021;-81
2022/11/07 01:25:41;;;;;;;19.65;10.80;;;10.50;99.90;;;;;;6161228;23;20322;-80
2022/11/07 01:28:08;;;;;;;20.52;10.07;;;10.50;99.90;;;;;;6161123;23;20044;-80
2022/11/07 01:30:38;;;;;;;18.98;9.80;;;10.50;99.90;;;;;;6187730;23;20063;-80
2022/11/07 01:33:04;;;;;;;20.45;10.63;;;10.40;99.90;;;;;;6187845;23;20036;-79
2022/11/07 01:35:31;;;;;;;20.08;10.23;;;10.50;99.90;;;;;;6161315;23;20345;-81
2022/11/07 01:37:57;;;;;;;16.77;9.35;;;10.40;99.90;;;;;;6187764;23;20017;-79
2022/11/07 01:40:22;;;;;;;17.20;10.05;;;10.40;99.90;;;;;;6161133;23;20337;-79
2022/11/07 01:42:48;;;;;;;18.58;10.00;;;10.40;99.90;;;;;;6187218;23;20025;-79
2022/11/07 01:45:24;;;;;;;19.13;10.10;;;10.40;99.90;;;;;;6187659;23;20024;-79
2022/11/07 01:47:51;;;;;;;19.75;11.35;;;10.40;99.90;;;;;;6187477;23;20095;-80
2022/11/07 01:50:17;;;;;;;23.65;10.48;;;10.40;99.90;;;;;;6160350;23;20021;-81
2022/11/07 01:52:46;;;;;;;16.30;9.93;;;10.30;99.90;;;;;;6160908;23;20013;-80
2022/11/07 01:55:21;;;;;;;20.98;10.20;;;10.40;99.90;;;;;;6160815;23;20035;-80
2022/11/07 01:57:52;;;;;;;21.35;10.32;;;10.30;99.90;;;;;;6187697;23;20013;-80
2022/11/07 02:00:20;;;;;;;16.85;9.35;;;10.30;99.90;;;;;;6160843;23;20396;-80
2022/11/07 02:02:49;;;;;;;18.40;9.98;;;10.30;99.90;;;;;;6160893;23;20020;-81
2022/11/07 02:05:33;;;;;;;24.88;9.45;;;10.30;99.90;;;;;;6160902;23;20013;-80
2022/11/07 02:08:02;;;;;;;21.08;9.95;;;10.30;99.90;;;;;;6187514;23;20021;-80
2022/11/07 02:10:28;;;;;;;19.15;10.20;;;10.30;99.90;;;;;;6160739;23;20013;-80
2022/11/07 02:12:57;;;;;;;24.10;12.30;;;10.40;99.90;;;;;;6187460;23;20035;-79
2022/11/07 02:15:25;;;;;;;25.58;10.50;;;10.40;99.90;;;;;;6160734;23;20017;-80
2022/11/07 02:17:50;;;;;;;21.92;11.20;;;10.40;99.90;;;;;;6160639;23;20385;-81
2022/11/07 02:20:16;;;;;;;21.27;10.40;;;10.40;99.90;;;;;;6187361;23;20472;-80
2022/11/07 02:22:48;;;;;;;23.27;11.15;;;10.40;99.90;;;;;;6160634;23;20064;-80
2022/11/07 02:25:15;;;;;;;24.55;10.63;;;10.40;99.90;;;;;;6160789;23;20013;-81
2022/11/07 02:27:43;;;;;;;21.30;9.63;;;10.40;99.90;;;;;;6160776;23;20024;-81
2022/11/07 02:30:13;;;;;;;20.98;8.65;;;10.40;99.90;;;;;;6160543;23;20415;-80
2022/11/07 02:32:39;;;;;;;17.10;7.63;;;10.50;99.90;;;;;;6160635;23;20032;-79
2022/11/07 02:35:26;;;;;;;17.90;7.57;;;10.40;99.90;;;;;;6186961;23;20025;-80
2022/11/07 02:37:52;;;;;;;13.25;7.47;;;10.50;99.90;;;;;;6160420;23;20021;-80
2022/11/07 02:40:18;;;;;;;21.00;7.35;;;10.50;99.90;;;;;;6160991;23;20096;-80
2022/11/07 02:42:45;;;;;;;16.38;6.78;;;10.40;99.90;;;;;;6186664;23;20075;-80
2022/11/07 02:45:11;;;;;;;28.40;7.72;;;10.50;99.90;;;;;;6187145;23;20092;-81
2022/11/07 02:47:37;;;;;;;24.17;7.35;;;10.50;99.90;;;;;;6160449;23;20051;-80
2022/11/07 02:50:07;;;;;;;19.65;7.20;;;10.50;99.90;;;;;;6160402;23;20017;-81
2022/11/07 02:52:32;;;;;;;14.98;6.65;;;10.40;99.90;;;;;;6187084;23;20059;-81
2022/11/07 02:54:58;;;;;;;19.27;6.45;;;10.50;99.90;;;;;;6160548;23;20041;-80
2022/11/07 02:57:24;;;;;;;17.95;7.00;;;10.50;99.90;;;;;;6186789;23;20025;-80
2022/11/07 02:59:49;;;;;;;16.75;7.72;;;10.40;99.90;;;;;;6160198;23;20076;-80
2022/11/07 03:02:15;;;;;;;15.05;6.15;;;10.40;99.90;;;;;;6160375;23;20422;-81
2022/11/07 03:04:40;;;;;;;15.15;6.30;;;10.50;99.90;;;;;;6160396;23;20013;-80
2022/11/07 03:07:06;;;;;;;18.73;6.43;;;10.50;99.90;;;;;;6187021;23;20108;-80
2022/11/07 03:09:31;;;;;;;18.25;5.53;;;10.50;99.90;;;;;;6160194;23;20016;-81
2022/11/07 03:11:57;;;;;;;12.27;4.82;;;10.40;99.90;;;;;;6160233;23;20024;-81
2022/11/07 03:14:23;;;;;;;12.82;4.97;;;10.50;99.90;;;;;;6186658;23;20021;-80
2022/11/07 03:16:48;;;;;;;14.88;4.95;;;10.50;99.90;;;;;;6186842;23;20079;-80
2022/11/07 03:19:14;;;;;;;20.15;5.20;;;10.40;99.90;;;;;;6160216;23;20408;-80
2022/11/07 03:21:39;;;;;;;15.18;4.95;;;10.40;99.90;;;;;;6160180;23;20020;-81
2022/11/07 03:24:06;;;;;;;12.38;4.90;;;10.40;99.90;;;;;;6160158;23;20515;-80
2022/11/07 03:26:31;;;;;;;16.45;5.82;;;10.40;99.90;;;;;;6160204;23;20028;-81
2022/11/07 03:28:58;;;;;;;15.98;5.55;;;10.40;99.90;;;;;;6186337;23;20021;-80
2022/11/07 03:31:24;;;;;;;14.23;5.00;;;10.30;99.90;;;;;;6186304;23;20449;-81
2022/11/07 03:33:49;;;;;;;9.60;4.30;;;10.40;99.90;;;;;;6186904;23;20031;-79
2022/11/07 03:36:15;;;;;;;10.98;4.47;;;10.40;99.90;;;;;;6186709;23;20013;-81
2022/11/07 03:38:40;;;;;;;11.07;4.38;;;10.40;99.90;;;;;;6160005;23;20079;-80
2022/11/07 03:41:06;;;;;;;13.73;5.00;;;10.40;99.90;;;;;;6160073;23;20140;-79
2022/11/07 03:43:32;;;;;;;15.43;5.93;;;10.40;99.90;;;;;;6159788;23;20020;-80
2022/11/07 03:45:57;;;;;;;13.32;6.13;;;10.40;99.90;;;;;;6160047;23;20381;-81
2022/11/07 03:48:23;;;;;;;17.13;6.60;;;10.40;99.90;;;;;;6186582;23;20009;-81
2022/11/07 03:50:49;;;;;;;15.10;6.03;;;10.50;99.90;;;;;;6159870;23;20120;-80
2022/11/07 03:53:14;;;;;;;17.05;7.05;;;10.50;99.90;;;;;;6160018;23;20024;-80
2022/11/07 03:55:41;;;;;;;13.23;7.10;;;10.50;99.90;;;;;;6186544;23;20020;-81
2022/11/07 03:58:07;;;;;;;17.70;8.27;;;10.40;99.90;;;;;;6159840;23;20318;-81
2022/11/07 04:00:33;;;;;;;16.95;7.60;;;10.50;99.90;;;;;;6159860;23;20460;-81
2022/11/07 04:02:58;;;;;;;17.50;7.60;;;10.50;99.90;;;;;;6159869;23;20476;-80
2022/11/07 04:05:24;;;;;;;22.92;7.38;;;10.50;99.90;;;;;;6159804;23;20017;-80
2022/11/07 04:07:49;;;;;;;18.88;6.72;;;10.50;99.90;;;;;;6159791;23;20020;-81
2022/11/07 04:10:15;;;;;;;15.07;6.10;;;10.50;99.90;;;;;;6159681;23;20016;-81
2022/11/07 04:18:10;;;;;;;13.60;5.18;;;10.40;99.90;;;;;;6186374;23;20028;-80
2022/11/07 04:20:36;;;;;;;21.70;5.40;;;10.50;99.90;;;;;;6159734;23;20013;-81
2022/11/07 04:23:01;;;;;;;14.27;4.80;;;10.40;99.90;;;;;;6159738;23;20013;-81
2022/11/07 04:28:16;;;;;;;15.60;4.10;;;10.50;99.90;;;;;;6100741;23;20025;-81
2022/11/07 04:30:42;;;;;;;12.30;4.35;;;10.40;99.90;;;;;;6159530;23;20095;-80
2022/11/07 04:33:08;;;;;;;22.15;4.43;;;10.50;99.90;;;;;;6186020;23;20092;-80
2022/11/07 04:35:34;;;;;;;17.20;4.35;;;10.40;99.90;;;;;;6159651;23;20394;-80
2022/11/07 04:38:00;;;;;;;15.85;4.82;;;10.40;99.90;;;;;;6159569;23;20479;-80
2022/11/07 04:40:27;;;;;;;20.27;5.63;;;10.40;99.90;;;;;;6159624;23;20017;-80
2022/11/07 04:42:53;;;;;;;18.13;5.47;;;10.50;99.90;;;;;;6154425;23;20084;-82
2022/11/07 04:45:19;;;;;;;22.35;5.20;;;10.40;99.90;;;;;;6130055;23;20390;-81
2022/11/07 04:47:45;;;;;;;18.20;5.07;;;10.50;99.90;;;;;;6129987;23;20024;-82
2022/11/07 04:50:16;;;;;;;15.43;4.93;;;10.50;99.90;;;;;;6156372;23;20025;-82
2022/11/07 04:52:43;;;;;;;18.25;5.25;;;10.50;99.90;;;;;;6129895;23;20132;-81
2022/11/07 04:55:17;;;;;;;15.40;5.28;;;10.50;99.90;;;;;;6156444;23;20152;-81
2022/11/07 04:57:42;;;;;;;16.42;5.70;;;10.50;99.90;;;;;;6156418;23;20014;-81
2022/11/07 05:00:08;;;;;;;19.08;5.68;;;10.50;99.90;;;;;;6156381;23;20021;-80
2022/11/07 05:02:34;;;;;;;26.13;6.57;;;10.50;99.90;;;;;;6156049;23;20009;-80
2022/11/07 05:04:59;;;;;;;17.88;5.50;;;10.50;99.90;;;;;;6129922;23;20449;-81
2022/11/07 05:07:25;;;;;;;17.85;4.53;;;10.50;99.90;;;;;;6129956;23;20023;-82
2022/11/07 05:09:51;;;;;;;17.30;5.32;;;10.40;99.90;;;;;;6156210;23;20013;-81
2022/11/07 05:12:16;;;;;;;12.60;4.20;;;10.40;99.90;;;;;;6156371;23;20040;-81
2022/11/07 05:14:42;;;;;;;17.17;5.30;;;10.40;99.90;;;;;;6130376;23;20029;-81
2022/11/07 05:17:12;;;;;;;17.17;5.57;;;10.30;99.90;;;;;;6129991;23;20013;-81
2022/11/07 05:19:37;;;;;;;14.80;5.15;;;10.40;99.90;;;;;;6129897;23;20077;-80
2022/11/07 05:24:47;;;;;;;16.55;5.82;;;10.40;99.90;;;;;;6157887;23;20092;-80
2022/11/07 05:27:19;;;;;;;15.93;5.47;;;10.40;99.90;;;;;;6158136;23;20442;-80
2022/11/07 05:29:45;;;;;;;18.08;6.15;;;10.40;99.90;;;;;;6131683;23;20024;-81
2022/11/07 05:32:11;;;;;;;13.88;5.95;;;10.50;99.90;;;;;;6131629;23;20045;-79
2022/11/07 05:34:37;;;;;;;15.88;6.38;;;10.50;99.90;;;;;;6157703;23;20013;-80
2022/11/07 05:37:05;;;;;;;17.92;6.03;;;10.50;99.90;;;;;;6158062;23;20017;-80
2022/11/07 05:39:31;;;;;;;15.85;5.82;;;10.50;99.90;;;;;;6157717;23;20017;-81
2022/11/07 05:41:58;;;;;;;17.85;5.38;;;10.50;99.90;;;;;;6131389;23;20017;-81
2022/11/07 05:44:24;;;;;;;15.95;4.68;;;10.40;99.90;;;;;;6131549;23;20021;-80
2022/11/07 05:46:49;;;;;;;14.80;4.78;;;10.40;99.90;;;;;;6131598;23;20124;-79
2022/11/07 05:49:15;;;;;;;16.88;5.38;;;10.40;99.90;;;;;;6131455;23;20024;-80
2022/11/07 05:51:42;;;;;;;16.38;4.95;;;10.40;99.90;;;;;;6157904;23;20013;-79
2022/11/07 05:54:08;;;;;;;19.05;5.03;;;10.40;99.90;;;;;;6131477;23;20454;-80
2022/11/07 05:56:36;;;;;;;18.67;4.85;;;10.40;99.90;;;;;;6131281;23;20021;-80
2022/11/07 05:59:03;;;;;;;16.10;5.43;;;10.50;99.90;;;;;;6131376;23;20442;-79
2022/11/07 06:01:29;;;;;;;19.63;5.30;;;10.50;99.90;;;;;;6131375;23;20471;-80
2022/11/07 06:03:55;;;;;;;13.70;5.65;;;10.50;99.90;;;;;;6131462;23;20154;-79
2022/11/07 06:06:20;;;;;;;12.70;4.65;;;10.50;99.90;;;;;;6131390;23;20049;-81
2022/11/07 06:08:46;;;;;;;13.43;4.68;;;10.50;99.90;;;;;;6157793;23;20045;-81
2022/11/07 06:11:12;;;;;;;18.38;4.57;;;10.50;99.90;;;;;;6131182;23;20422;-81
2022/11/07 06:13:37;;;;;;;16.38;4.72;;;10.40;99.90;;;;;;6131162;23;20088;-80
2022/11/07 06:16:04;;;;;;;21.90;5.22;;;10.40;99.90;;;;;;6131333;23;20049;-80
2022/11/07 06:18:30;;;;;;;15.45;6.05;;;10.40;99.90;;;;;;6157247;23;20389;-80
2022/11/07 06:20:55;;;;;;;18.48;6.03;;;10.40;99.90;;;;;;6131180;23;20022;-80
2022/11/07 06:23:21;;;;;;;11.95;4.60;;;10.40;99.90;;;;;;6130945;23;20017;-80
2022/11/07 06:25:49;;;;;;;12.38;4.82;;;10.30;99.90;;;;;;6157612;23;20017;-80
2022/11/07 06:28:14;;;;;;;15.20;4.38;;;10.40;99.90;;;;;;6130926;23;20025;-80
2022/11/07 06:30:41;;;;;;;15.88;5.50;;;10.40;99.90;;;;;;6131014;23;20332;-80
2022/11/07 06:33:10;;;;;;;15.40;5.25;;;10.40;99.90;;;;;;6130973;23;20473;-80
2022/11/07 06:35:36;;;;;;;19.33;5.30;;;10.40;99.90;;;;;;6130819;23;20096;-80
2022/11/07 06:38:03;;;;;;;13.88;4.85;;;10.40;99.90;;;;;;6157040;23;20053;-80
2022/11/07 06:40:29;;;;;;;17.25;5.38;;;10.40;99.90;;;;;;6130978;23;20027;-81
2022/11/07 06:42:55;;;;;;;16.08;5.63;;;10.40;99.90;;;;;;6130537;23;20320;-82
2022/11/07 06:45:21;;;;;;;14.35;4.72;;;10.40;99.90;;;;;;6130522;23;20064;-79
2022/11/07 06:47:46;;;;;;;12.20;5.32;;;10.50;99.90;;;;;;6130370;23;20346;-79
2022/11/07 06:50:12;;;;;;;18.23;5.03;;;10.50;99.90;;;;;;6130339;23;20022;-80
2022/11/07 06:52:38;;;;;;;16.35;5.70;;;10.50;99.90;;;;;;6130081;23;20017;-82
2022/11/07 06:55:04;;;;;;;9.82;4.65;;;10.60;99.90;;;;;;6129737;23;20010;-81
2022/11/07 06:57:29;;;;;;;16.85;5.00;;;10.50;99.90;;;;;;6157198;23;20033;-81
2022/11/07 06:59:55;;;;;;;11.50;4.18;;;10.60;99.90;;;;;;6130702;23;20350;-81
2022/11/07 07:02:20;;;;;;;10.93;4.45;;;10.60;99.90;;;;;;6130746;23;20021;-80
2022/11/07 07:04:47;;;;;;;13.40;4.75;;;10.60;99.90;;;;;;6130695;23;20049;-80
2022/11/07 07:07:13;;;;;;;14.07;4.85;;;10.60;99.90;;;;;;6130691;23;20052;-81
2022/11/07 07:09:39;;;;;;;12.25;5.03;;;10.60;99.90;;;;;;6130605;23;20010;-80
2022/11/07 07:12:04;;;;;;;13.52;5.50;;;10.60;99.90;;;;;;6156639;23;20025;-81
2022/11/07 07:14:30;;;;;;;14.05;5.10;;;10.60;99.90;;;;;;6156411;23;20093;-82
2022/11/07 07:16:58;;;;;;;18.33;5.50;;;10.60;99.90;;;;;;6156685;23;20024;-80
2022/11/07 07:19:23;;;;;;;14.00;5.28;;;10.50;99.90;;;;;;6156931;23;20022;-80
2022/11/07 07:21:49;;;;;;;19.80;6.20;;;10.60;99.90;;;;;;6156895;23;20006;-80
2022/11/07 07:24:15;;;;;;;15.43;6.30;;;10.50;99.90;;;;;;6156611;23;20052;-80
2022/11/07 07:26:40;;;;;;;17.70;6.22;;;10.60;99.90;;;;;;6129591;23;20426;-79
2022/11/07 07:29:06;;;;;;;10.93;5.95;;;10.60;99.90;;;;;;6129889;23;20025;-80
2022/11/07 07:31:31;;;;;;;11.98;5.53;;;10.60;99.90;;;;;;6156640;23;20029;-79
2022/11/07 07:33:57;;;;;;;20.77;6.40;;;10.60;99.90;;;;;;6156260;23;20397;-80
2022/11/07 07:36:23;;;;;;;15.75;5.57;;;10.60;99.90;;;;;;6156221;23;20446;-81
2022/11/07 07:38:49;;;;;;;15.18;5.72;;;10.60;99.90;;;;;;6156135;23;20068;-78
2022/11/07 07:41:16;;;;;;;17.42;5.68;;;10.70;99.90;;;;;;6130071;23;20336;-80
2022/11/07 07:43:43;;;;;;;13.30;4.75;;;10.70;99.90;;;;;;6129791;23;20319;-80
2022/11/07 07:46:15;;;;;;;12.70;5.13;;;10.70;99.90;;;;;;6156350;23;20014;-79
2022/11/07 07:48:40;;;;;;;18.17;6.10;;;10.80;99.90;;;;;;6155903;23;20025;-79
2022/11/07 07:51:06;;;;;;;16.67;6.13;;;10.80;99.90;;;;;;6129982;23;20028;-79
2022/11/07 07:53:32;;;;;;;17.10;6.35;;;10.90;99.90;;;;;;6156089;23;20027;-79
2022/11/07 07:55:58;;;;;;;19.00;7.53;;;10.90;99.90;;;;;;6156441;23;20018;-79
2022/11/07 07:58:26;;;;;;;14.15;6.88;;;10.80;99.90;;;;;;6155972;23;20508;-80
2022/11/07 08:00:52;;;;;;;17.20;6.50;;;10.80;99.90;;;;;;6129988;23;20107;-79
2022/11/07 08:03:18;;;;;;;16.73;6.50;;;10.80;99.90;;;;;;6156423;23;20021;-79
2022/11/07 08:05:43;;;;;;;17.27;7.07;;;10.80;99.90;;;;;;6156307;23;20076;-80
2022/11/07 08:08:09;;;;;;;25.40;7.88;;;10.90;99.90;;;;;;6155939;23;20100;-78
2022/11/07 08:10:35;;;;;;;15.32;8.25;;;10.90;99.90;;;;;;6156117;23;20676;-79
2022/11/07 08:13:00;;;;;;;18.90;7.45;;;10.90;99.90;;;;;;6156210;23;20024;-78
2022/11/07 08:15:26;;;;;;;14.43;7.22;;;10.90;99.90;;;;;;6155822;23;20049;-79
2022/11/07 08:17:52;;;;;;;17.13;7.00;;;11.00;99.90;;;;;;6156269;23;20021;-79
2022/11/07 08:20:19;;;;;;;19.02;7.65;;;11.00;99.90;;;;;;6156133;23;20098;-79
2022/11/07 08:22:45;;;;;;;16.40;6.60;;;11.00;99.90;;;;;;6156188;23;20009;-79
2022/11/07 08:25:11;;;;;;;18.80;7.78;;;11.00;99.90;;;;;;6155974;23;20063;-79
2022/11/07 08:27:37;;;;;;;16.95;7.55;;;11.00;99.90;;;;;;6155936;23;20025;-80
2022/11/07 08:30:05;;;;;;;17.92;7.55;;;10.90;99.90;;;;;;6155882;23;20032;-78
2022/11/07 08:32:31;;;;;;;23.67;8.00;;;11.00;99.90;;;;;;6129809;23;20442;-81
2022/11/07 08:34:57;;;;;;;16.88;7.03;;;11.00;99.90;;;;;;6129655;23;20105;-78
2022/11/07 08:37:22;;;;;;;15.27;7.18;;;11.10;99.90;;;;;;6156142;23;20014;-78
2022/11/07 08:39:48;;;;;;;15.57;7.78;;;11.00;99.90;;;;;;6129782;23;20105;-79
2022/11/07 08:42:14;;;;;;;22.08;8.50;;;11.00;99.90;;;;;;6155529;23;20017;-79
2022/11/07 08:44:40;;;;;;;19.42;7.53;;;11.00;99.90;;;;;;6129735;23;20044;-78
2022/11/07 08:47:06;;;;;;;22.88;7.57;;;11.00;99.90;;;;;;6156110;23;20017;-79
2022/11/07 08:49:31;;;;;;;16.80;7.68;;;11.00;99.90;;;;;;6156035;23;20326;-79
2022/11/07 08:51:58;;;;;;;17.52;7.50;;;11.00;99.90;;;;;;6155676;23;20029;-79
2022/11/07 08:54:27;;;;;;;20.10;8.75;;;11.10;99.90;;;;;;6155778;23;20022;-78
2022/11/07 08:56:53;;;;;;;24.10;8.10;;;11.00;99.90;;;;;;6155944;23;20010;-78
2022/11/07 08:59:19;;;;;;;23.35;7.97;;;11.00;99.90;;;;;;6130905;23;20068;-79
2022/11/07 09:01:44;;;;;;;23.52;7.82;;;11.10;99.90;;;;;;6157873;23;20036;-78
2022/11/07 09:04:10;;;;;;;25.77;8.65;;;11.10;99.90;;;;;;6157674;23;20025;-78
2022/11/07 09:06:36;;;;;;;22.70;8.07;;;11.10;99.90;;;;;;6157568;23;20076;-79
2022/11/07 09:09:01;;;;;;;24.95;7.72;;;11.20;99.90;;;;;;6157871;23;20016;-79
2022/11/07 09:11:27;;;;;;;23.35;9.95;;;11.20;99.90;;;;;;6157901;23;20446;-79
2022/11/07 09:13:54;;;;;;;24.50;8.60;;;11.20;99.90;;;;;;6157962;23;20037;-79
2022/11/07 09:16:21;;;;;;;22.42;8.32;;;11.30;99.90;;;;;;6157510;23;20021;-79
2022/11/07 09:18:48;;;;;;;24.95;8.02;;;11.30;99.90;;;;;;6157928;23;20017;-78
2022/11/07 09:21:15;;;;;;;21.30;8.35;;;11.30;99.90;;;;;;6157324;23;20013;-78
2022/11/07 09:23:40;;;;;;;21.95;7.47;;;11.30;99.90;;;;;;6131420;23;20029;-78
2022/11/07 09:26:06;;;;;;;20.83;8.18;;;11.30;99.90;;;;;;6157892;23;20558;-77
2022/11/07 09:28:33;;;;;;;27.50;8.77;;;11.30;99.90;;;;;;6157307;23;20378;-78
2022/11/07 09:31:00;;;;;;;25.33;8.23;;;11.40;99.90;;;;;;6157759;23;20021;-79
2022/11/07 09:33:26;;;;;;;21.92;7.78;;;11.30;99.90;;;;;;6131160;23;20017;-78
2022/11/07 09:35:52;;;;;;;22.88;8.27;;;11.30;99.90;;;;;;6131140;23;20031;-79
2022/11/07 09:38:18;;;;;;;22.00;8.13;;;11.30;99.90;;;;;;6131337;23;20057;-79
2022/11/07 09:40:49;;;;;;;22.05;9.02;;;11.30;99.90;;;;;;6157709;23;20013;-79
2022/11/07 09:43:26;;;;;;;29.15;8.35;;;11.40;99.90;;;;;;6157009;23;20096;-78
2022/11/07 09:46:10;;;;;;;30.60;8.95;;;11.30;99.90;;;;;;6157661;23;20057;-78
2022/11/07 09:48:43;;;;;;;20.60;7.82;;;11.30;99.90;;;;;;6157184;23;20461;-78
2022/11/07 09:51:17;;;;;;;28.15;8.13;;;11.40;99.90;;;;;;6157524;23;20022;-79
2022/11/07 09:53:46;;;;;;;21.88;7.78;;;11.50;99.90;;;;;;6157149;23;20014;-78
2022/11/07 09:56:14;;;;;;;24.70;8.98;;;11.50;99.90;;;;;;6157436;23;20017;-79
2022/11/07 09:58:45;;;;;;;22.73;8.43;;;11.50;99.90;;;;;;6157366;23;20018;-78
2022/11/07 10:01:15;;;;;;;20.60;7.28;;;11.50;99.90;;;;;;6157246;23;20022;-79
2022/11/07 10:03:41;;;;;;;26.63;6.93;;;11.50;99.90;;;;;;6130975;23;20021;-78
2022/11/07 10:06:31;;;;;;;17.50;8.32;;;11.60;99.90;;;;;;6157472;23;20053;-79
2022/11/07 10:09:11;;;;;;;18.23;8.07;;;11.60;99.90;;;;;;6131014;23;20053;-79
2022/11/07 10:12:03;;;;;;;26.00;8.38;;;11.60;99.90;;;;;;6130323;23;20026;-79
2022/11/07 10:14:48;;;;;;;23.30;7.35;;;11.60;99.90;;;;;;6136275;23;20017;-79
2022/11/07 10:17:25;;;;;;;15.55;7.03;;;11.60;99.90;;;;;;6157362;23;20018;-79
2022/11/07 10:20:27;;;;;;;20.88;7.28;;;11.70;99.90;;;;;;6157331;23;20017;-79
2022/11/07 10:23:22;;;;;;;19.50;6.25;;;11.60;99.90;;;;;;6157371;23;20021;-78
2022/11/07 10:26:03;;;;;;;18.63;7.22;;;11.70;99.90;;;;;;6156715;23;20338;-78
2022/11/07 10:28:29;;;;;;;23.27;7.82;;;11.70;99.90;;;;;;6157208;23;20097;-78
2022/11/07 10:30:58;;;;;;;16.40;6.78;;;11.80;99.90;;;;;;6156475;23;20446;-79
2022/11/07 10:34:01;;;;;;;17.38;7.00;;;11.80;99.90;;;;;;6157210;23;20018;-78
2022/11/07 10:36:30;;;;;;;16.63;7.37;;;11.80;99.90;;;;;;6096202;23;20386;-79
2022/11/07 10:38:56;;;;;;;18.02;6.78;;;11.90;99.90;;;;;;6156832;23;20238;-84
2022/11/07 10:41:27;;;;;;;17.90;7.22;;;11.90;99.90;;;;;;6130706;23;20366;-82
2022/11/07 10:44:06;;;;;;;20.95;6.72;;;12.00;99.90;;;;;;6130579;23;20017;-79
2022/11/07 10:46:37;;;;;;;20.73;6.47;;;12.10;99.90;;;;;;6157080;23;20024;-78
2022/11/07 10:49:19;;;;;;;20.58;7.40;;;12.10;99.90;;;;;;6130495;23;20067;-78
2022/11/07 10:51:45;;;;;;;22.15;6.28;;;12.10;99.90;;;;;;6130586;23;20021;-80
2022/11/07 10:54:26;;;;;;;19.75;6.82;;;12.20;99.90;;;;;;6130673;23;20020;-78
2022/11/07 10:57:03;;;;;;;20.38;6.65;;;12.20;99.90;;;;;;6130580;23;20033;-77
2022/11/07 10:59:31;;;;;;;16.90;6.45;;;12.20;99.90;;;;;;6130874;23;20021;-78
2022/11/07 11:01:58;;;;;;;18.45;6.25;;;12.20;99.90;;;;;;6130384;23;20040;-79
2022/11/07 11:04:27;;;;;;;16.48;6.50;;;12.30;99.90;;;;;;6130497;23;20108;-79
2022/11/07 11:06:57;;;;;;;18.77;6.63;;;12.30;99.90;;;;;;6130529;23;20088;-78
2022/11/07 11:09:28;;;;;;;19.63;6.95;;;12.30;99.90;;;;;;6130280;23;20029;-79
2022/11/07 11:11:53;;;;;;;20.10;6.80;;;12.30;99.90;;;;;;6130362;23;20018;-78
2022/11/07 11:14:20;;;;;;;22.17;7.07;;;12.30;99.90;;;;;;6156635;23;20087;-78
2022/11/07 11:16:52;;;;;;;18.02;6.50;;;12.30;99.90;;;;;;6156422;23;20517;-78
2022/11/07 11:19:22;;;;;;;19.57;6.20;;;12.50;99.90;;;;;;6130369;23;20490;-78
2022/11/07 11:21:50;;;;;;;21.38;6.45;;;12.60;99.90;;;;;;6130301;23;20467;-78
2022/11/07 11:24:36;;;;;;;17.77;6.85;;;12.60;99.90;;;;;;6130252;23;20446;-78
2022/11/07 11:27:23;;;;;;;14.15;6.10;;;12.60;99.90;;;;;;6130218;23;20028;-81
2022/11/07 11:29:57;;;;;;;15.20;5.93;;;12.60;99.90;;;;;;6130037;23;20066;-78
2022/11/07 11:32:32;;;;;;;21.20;5.75;;;12.50;99.90;;;;;;6156224;23;20396;-78
2022/11/07 11:35:17;;;;;;;16.50;6.20;;;12.60;99.90;;;;;;6156058;23;20048;-79
2022/11/07 11:37:47;;;;;;;21.00;6.30;;;12.70;99.90;;;;;;6130444;23;20434;-78
2022/11/07 11:40:21;;;;;;;19.10;5.32;;;12.80;99.90;;;;;;6156305;23;20537;-77
2022/11/07 11:43:17;;;;;;;20.70;6.55;;;12.80;99.90;;;;;;6155981;23;20021;-78
2022/11/07 11:46:05;;;;;;;18.20;5.82;;;12.80;99.90;;;;;;6151270;23;20028;-78
2022/11/07 11:48:48;;;;;;;16.90;6.10;;;12.70;99.90;;;;;;6129819;23;20362;-78
2022/11/07 11:51:33;;;;;;;18.98;5.93;;;12.90;99.90;;;;;;6129723;23;20049;-78
2022/11/07 11:54:00;;;;;;;18.45;5.80;;;12.80;99.90;;;;;;6155948;23;20075;-78
2022/11/07 11:56:39;;;;;;;17.67;6.53;;;12.80;99.90;;;;;;6129789;23;20072;-78
2022/11/07 11:59:18;;;;;;;23.23;5.97;;;12.80;99.90;;;;;;6155979;23;20014;-79
2022/11/07 12:01:47;;;;;;;19.70;6.95;;;12.80;99.90;;;;;;6156154;23;20072;-79
2022/11/07 12:04:37;;;;;;;22.85;5.78;;;12.80;99.90;;;;;;6156107;23;20049;-79
2022/11/07 12:07:26;;;;;;;14.40;5.63;;;12.90;99.90;;;;;;6155987;23;20454;-78
2022/11/07 12:09:56;;;;;;;17.02;6.25;;;12.80;99.90;;;;;;6129679;23;20026;-78
2022/11/07 12:12:51;;;;;;;21.73;7.22;;;12.90;99.90;;;;;;6129925;23;20354;-79
2022/11/07 12:15:23;;;;;;;20.30;5.90;;;12.80;99.90;;;;;;6129938;23;20028;-79
2022/11/07 12:18:11;;;;;;;20.98;6.65;;;12.90;99.90;;;;;;6129893;23;20020;-79
2022/11/07 12:21:06;;;;;;;14.07;6.60;;;12.80;99.90;;;;;;6156306;23;20049;-79
2022/11/07 12:24:07;;;;;;;20.67;6.22;;;12.80;99.90;;;;;;6114293;23;20028;-79
2022/11/07 12:26:41;;;;;;;18.00;6.55;;;12.80;99.90;;;;;;6156249;23;20014;-79
2022/11/07 12:29:26;;;;;;;20.05;7.15;;;12.80;99.90;;;;;;6155820;23;20334;-78
2022/11/07 12:32:04;;;;;;;21.52;7.25;;;12.90;99.90;;;;;;6155818;23;20719;-79
2022/11/07 12:34:33;;;;;;;18.75;6.65;;;13.10;99.90;;;;;;6129539;23;20025;-78
2022/11/07 12:37:26;;;;;;;18.00;6.82;;;13.20;99.90;;;;;;6129788;23;20021;-78
2022/11/07 12:40:33;;;;;;;19.02;6.57;;;13.30;99.90;;;;;;6129685;23;20021;-78
2022/11/07 12:43:15;;;;;;;18.13;6.68;;;13.20;99.90;;;;;;6128209;23;20021;-77
2022/11/07 12:46:26;;;;;;;15.70;6.20;;;13.10;99.90;;;;;;6155865;23;20061;-79
2022/11/07 12:49:11;;;;;;;22.52;6.88;;;13.20;99.90;;;;;;6041749;23;20023;-79
2022/11/07 12:52:01;;;;;;;16.08;6.07;;;13.20;99.90;;;;;;6070264;23;20391;-79
2022/11/07 12:54:56;;;;;;;15.48;6.53;;;13.20;99.90;;;;;;6133832;23;20017;-79
2022/11/07 12:57:32;;;;;;;23.83;7.18;;;13.20;99.90;;;;;;6130158;23;20032;-79
2022/11/07 13:00:20;;;;;;;20.52;7.05;;;13.40;99.90;;;;;;6155659;23;20459;-79
2022/11/07 13:03:15;;;;;;;15.07;7.28;;;13.40;99.90;;;;;;6155744;23;20342;-79